Startpagina
METAR-TAF:

METAR-TAF

Vliegvelden :

Seletar Airport

Singapore, Singapore

breedte: 01-25-08N, lengte: 103-51-57E, hoogte: 11 m

Actueel weer

Dit bericht is 1 uur en het 5 minuten geleden gemaakt, om 10:00 UTC
Wind 15 kt uit het noordoosten met uitschieters tot 25 kt
Temperatuur 30°C
Vochtigheid 66%
Druk 1011 hPa
Zicht 10 km of meer
Weinig wolken op 1800 ft
Gebroken wolken op 30000 ft

METAR: WSSL 221000Z 04015G25KT 9999 FEW018 BKN300 30/23 Q1011

Tijdstip: 19:05 (11:05 UTC)

Verwachting

Dit bericht is 3 uur en het 5 minuten geleden gemaakt, om 08:00 UTC
Verwachting geldig van 22 om 08 UTC tot 23 om 12 UTC
Wind 14 kt uit het noordnoordoosten
Zicht 10 km of meer
Weinig wolken op 1500 ft
Verspreide wolken op 2000 ft
Tijdelijke
van 22 om 08 UTC tot 22 om 10 UTC
Wind 15 kt uit het noordnoordoosten met uitschieters tot 25 kt

TAF: WSSL 220800Z 2208/2312 03014KT 9999 FEW015 SCT020 TEMPO 2208/2210 03015G25KT

Waarnemingen en weersverwachtingen van meer dan 4000 vliegvelden (METAR en TAF).

De beschikbare stations zijn de gele en rode punten op de kaart.

Ga met uw muis naar het station om de naam te zien.

Klik dan om waarnemingen en weersverwachtingen te zien.

kaart wijzigen: klik op de groene knoppen met een zwart kruis om in te zoomen, op de groene knop met een streepje om uit te zoomen of op de groene pijlen voor aangrenzende kaarten.


METAR-TAF: